createdAt,value
2019-05-07T00:01:34.138Z,2.80
2019-05-07T00:04:01.977Z,3.05
2019-05-07T00:06:28.822Z,2.20
2019-05-07T00:08:56.319Z,2.65
2019-05-07T00:11:23.766Z,2.72
2019-05-07T00:13:52.278Z,2.92
2019-05-07T00:16:18.731Z,2.70
2019-05-07T00:18:46.215Z,2.40
2019-05-07T00:21:13.658Z,2.87
2019-05-07T00:23:43.158Z,3.75
2019-05-07T00:26:08.602Z,1.90
2019-05-07T00:28:36.030Z,2.30
2019-05-07T00:31:03.503Z,3.28
2019-05-07T00:33:32.353Z,1.80
2019-05-07T00:35:58.437Z,3.62
2019-05-07T00:38:25.883Z,2.95
2019-05-07T00:40:53.719Z,2.30
2019-05-07T00:43:22.675Z,2.20
2019-05-07T00:46:04.406Z,2.65
2019-05-07T00:48:32.880Z,3.25
2019-05-07T00:53:56.329Z,5.25
2019-05-07T00:56:23.815Z,1.77
2019-05-07T00:58:52.748Z,2.85
2019-05-07T01:01:18.764Z,2.55
2019-05-07T01:03:46.200Z,2.03
2019-05-07T01:06:13.646Z,2.42
2019-05-07T01:08:43.049Z,3.08
2019-05-07T01:11:08.607Z,2.80
2019-05-07T01:13:36.043Z,3.33
2019-05-07T01:16:03.492Z,2.85
2019-05-07T01:18:32.403Z,2.60
2019-05-07T01:20:58.559Z,2.45
2019-05-07T01:23:26.015Z,3.15
2019-05-07T01:25:53.490Z,2.50
2019-05-07T01:28:22.320Z,3.75
2019-05-07T01:30:48.423Z,3.15
2019-05-07T01:33:35.568Z,2.72
2019-05-07T01:36:10.448Z,2.25
2019-05-07T01:38:38.025Z,2.55
2019-05-07T01:41:06.636Z,2.80
2019-05-07T01:43:34.297Z,3.78
2019-05-07T01:46:06.299Z,2.72
2019-05-07T01:48:33.840Z,3.28
2019-05-07T01:51:03.446Z,4.45
2019-05-07T01:53:29.553Z,2.62
2019-05-07T01:55:57.193Z,2.75
2019-05-07T01:58:26.833Z,3.20
2019-05-07T02:00:54.541Z,2.30
2019-05-07T02:03:28.831Z,2.80
2019-05-07T02:05:57.587Z,2.78
2019-05-07T02:08:32.781Z,2.80
2019-05-07T02:10:58.507Z,3.20
2019-05-07T02:13:26.074Z,3.58
2019-05-07T02:15:58.559Z,4.18
2019-05-07T02:18:21.847Z,3.40
2019-05-07T02:20:49.246Z,4.72
2019-05-07T02:23:17.168Z,2.47
2019-05-07T02:25:44.785Z,3.12
2019-05-07T02:28:12.918Z,2.83
2019-05-07T02:30:40.171Z,3.50
2019-05-07T02:33:07.635Z,3.72
2019-05-07T02:35:35.169Z,3.92
2019-05-07T02:38:08.096Z,3.40
2019-05-07T02:40:35.552Z,5.68
2019-05-07T02:43:03.166Z,3.00
2019-05-07T02:45:33.189Z,3.15
2019-05-07T02:47:58.806Z,4.10
2019-05-07T02:50:28.134Z,4.50
2019-05-07T02:52:58.057Z,3.67
2019-05-07T02:55:25.531Z,3.60
2019-05-07T02:57:54.011Z,3.37
2019-05-07T03:00:23.783Z,3.65
2019-05-07T03:02:48.084Z,4.65
2019-05-07T03:05:15.556Z,3.90
2019-05-07T03:07:43.030Z,4.62
2019-05-07T03:10:13.637Z,4.30
2019-05-07T03:12:38.007Z,5.12
2019-05-07T03:15:05.498Z,3.72
2019-05-07T03:17:33.511Z,4.43
2019-05-07T03:20:03.169Z,3.75
2019-05-07T03:22:28.114Z,4.05
2019-05-07T03:24:56.099Z,2.65
2019-05-07T03:27:23.846Z,3.40
2019-05-07T03:29:53.513Z,3.58
2019-05-07T04:31:50.065Z,4.85
2019-05-07T04:34:17.560Z,3.72
2019-05-07T04:36:45.017Z,4.00
2019-05-07T04:39:13.285Z,5.35
2019-05-07T04:41:39.973Z,5.37
2019-05-07T04:44:07.421Z,6.30
2019-05-07T04:46:34.882Z,6.95
2019-05-07T04:49:03.776Z,5.10
2019-05-07T04:51:29.842Z,6.65
2019-05-07T04:53:57.346Z,5.30
2019-05-07T05:06:13.721Z,5.40
2019-05-07T05:08:43.255Z,8.40
2019-05-07T05:11:07.907Z,5.90
2019-05-07T05:13:35.394Z,6.80
2019-05-07T05:16:02.939Z,4.50
2019-05-07T05:25:54.166Z,4.15
2019-05-07T05:28:21.973Z,4.78
2019-05-07T05:30:49.822Z,4.97
2019-05-07T05:33:17.358Z,4.15
2019-05-07T05:35:44.862Z,3.65
2019-05-07T05:38:12.797Z,4.65
2019-05-07T05:40:42.757Z,3.95
2019-05-07T05:43:12.861Z,4.50
2019-05-07T05:45:45.995Z,7.75
2019-05-07T05:48:13.769Z,7.55
2019-05-07T05:53:34.970Z,15.77
2019-05-07T05:56:04.948Z,6.28
2019-05-07T05:58:47.377Z,6.03
2019-05-07T06:01:22.443Z,6.18
2019-05-07T06:03:58.838Z,5.62
2019-05-07T06:06:29.223Z,4.00
2019-05-07T06:12:02.337Z,7.40
2019-05-07T06:14:30.222Z,4.50
2019-05-07T06:17:13.382Z,6.18
2019-05-07T06:20:02.775Z,5.33
2019-05-07T06:22:39.062Z,7.47
2019-05-07T06:25:07.325Z,5.80
2019-05-07T06:27:34.847Z,3.35
2019-05-07T06:32:31.920Z,3.40
2019-05-07T06:34:57.293Z,3.50
2019-05-07T06:37:25.044Z,2.55
2019-05-07T06:39:54.308Z,3.50
2019-05-07T06:42:23.738Z,4.25
2019-05-07T06:44:56.811Z,4.07
2019-05-07T06:47:24.259Z,3.50
2019-05-07T06:49:52.343Z,3.03
2019-05-07T06:52:19.393Z,3.12
2019-05-07T06:54:46.851Z,3.67
2019-05-07T06:57:14.615Z,4.18
2019-05-07T06:59:42.479Z,3.75
2019-05-07T07:02:15.965Z,3.42
2019-05-07T07:04:43.659Z,2.33
2019-05-07T07:07:27.234Z,4.12
2019-05-07T07:09:53.354Z,2.30
2019-05-07T07:12:26.442Z,3.17
2019-05-07T07:14:54.019Z,4.10
2019-05-07T07:17:22.289Z,3.97
2019-05-07T07:19:49.076Z,3.12
2019-05-07T07:22:16.551Z,4.55
2019-05-07T07:24:44.019Z,2.67
2019-05-07T07:27:13.202Z,11.60
2019-05-07T07:29:47.283Z,24.05
2019-05-07T07:32:14.775Z,16.17
2019-05-07T07:34:42.914Z,3.62
2019-05-07T07:37:23.294Z,3.58
2019-05-07T08:24:16.011Z,4.10
2019-05-07T08:26:43.482Z,4.55
2019-05-07T08:29:11.953Z,3.05
2019-05-07T08:31:42.542Z,5.47
2019-05-07T08:37:03.005Z,5.50
2019-05-07T08:39:32.552Z,3.30
2019-05-07T08:41:58.982Z,3.60
2019-05-07T08:44:32.526Z,2.55
2019-05-07T08:47:14.034Z,5.18
2019-05-07T08:49:43.401Z,3.28
2019-05-07T08:52:09.384Z,3.12
2019-05-07T08:54:36.832Z,2.30
2019-05-07T08:57:05.518Z,2.70
2019-05-07T08:59:33.660Z,3.12
2019-05-07T09:02:03.005Z,2.45
2019-05-07T09:04:29.989Z,3.20
2019-05-07T09:06:58.406Z,2.65
2019-05-07T09:09:27.104Z,2.65
2019-05-07T09:11:54.643Z,3.15
2019-05-07T09:14:24.481Z,3.62
2019-05-07T09:16:50.055Z,3.12
2019-05-07T09:19:17.729Z,2.22
2019-05-07T09:21:45.409Z,3.33
2019-05-07T09:24:12.870Z,2.62
2019-05-07T09:26:41.774Z,2.97
2019-05-07T09:29:11.684Z,3.00
2019-05-07T09:31:42.051Z,2.60
2019-05-07T09:34:08.774Z,2.72
2019-05-07T09:36:36.615Z,2.87
2019-05-07T09:39:04.219Z,3.30
2019-05-07T09:41:32.706Z,3.08
2019-05-07T09:44:00.048Z,3.03
2019-05-07T09:46:27.562Z,3.28
2019-05-07T09:48:55.077Z,3.00
2019-05-07T09:51:22.719Z,5.20
2019-05-07T09:53:51.988Z,3.22
2019-05-07T09:56:17.930Z,3.58
2019-05-07T09:58:45.409Z,2.00
2019-05-07T10:01:12.935Z,2.50
2019-05-07T10:03:42.755Z,2.50
2019-05-07T10:06:07.978Z,3.47
2019-05-07T10:08:35.547Z,3.42
2019-05-07T10:11:03.042Z,2.95
2019-05-07T10:13:30.486Z,2.40
2019-05-07T10:15:57.959Z,2.47
2019-05-07T10:18:25.532Z,3.50
2019-05-07T10:20:53.150Z,2.58
2019-05-07T10:23:22.794Z,3.65
2019-05-07T10:25:48.732Z,3.45
2019-05-07T10:28:16.196Z,3.40
2019-05-07T10:30:43.838Z,2.53
2019-05-07T10:33:12.403Z,3.40
2019-05-07T10:35:39.691Z,3.60
2019-05-07T10:38:07.138Z,2.92
2019-05-07T10:40:34.691Z,3.28
2019-05-07T10:43:03.073Z,3.25
2019-05-07T10:45:36.412Z,2.85
2019-05-07T10:48:05.867Z,3.42
2019-05-07T10:50:38.873Z,3.60
2019-05-07T10:53:02.068Z,3.03
2019-05-07T10:55:28.850Z,5.45
2019-05-07T10:57:56.360Z,4.55
2019-05-07T11:00:23.871Z,4.15
2019-05-07T11:02:51.843Z,3.10
2019-05-07T11:05:18.859Z,3.40
2019-05-07T11:07:46.320Z,3.53
2019-05-07T11:10:13.882Z,3.00
2019-05-07T11:12:42.466Z,3.58
2019-05-07T11:15:09.032Z,4.80
2019-05-07T11:17:41.893Z,3.95
2019-05-07T11:20:07.703Z,4.22
2019-05-07T11:22:35.259Z,4.40
2019-05-07T11:25:03.125Z,4.80
2019-05-07T11:27:30.314Z,3.97
2019-05-07T11:29:57.811Z,4.65
2019-05-07T11:42:15.270Z,4.60
2019-05-07T12:02:28.817Z,4.65
2019-05-07T12:04:56.276Z,4.75
2019-05-07T12:07:23.783Z,5.18
2019-05-07T13:52:46.520Z,3.20
2019-05-07T13:55:14.011Z,5.85
2019-05-07T13:57:41.713Z,4.93
2019-05-07T14:00:09.530Z,3.15
2019-05-07T14:02:37.028Z,4.22
2019-05-07T14:05:04.712Z,3.03
2019-05-07T14:07:33.146Z,2.17
2019-05-07T14:10:02.086Z,4.30
2019-05-07T14:12:28.808Z,4.30
2019-05-07T14:14:56.295Z,4.03
2019-05-07T14:17:23.808Z,5.62
2019-05-07T14:19:53.081Z,7.37
2019-05-07T14:22:19.378Z,4.82
2019-05-07T14:24:47.857Z,5.05
2019-05-07T14:27:17.027Z,3.92
2019-05-07T14:29:44.761Z,5.05
2019-05-07T14:32:13.156Z,2.35
2019-05-07T14:34:46.828Z,2.10
2019-05-07T14:37:16.819Z,1.50
2019-05-07T14:39:44.566Z,2.58
2019-05-07T14:42:12.895Z,3.67
2019-05-07T14:44:45.574Z,4.30
2019-05-07T14:47:13.231Z,3.65
2019-05-07T14:49:41.559Z,3.40
2019-05-07T14:52:09.498Z,3.65
2019-05-07T14:54:37.674Z,2.80
2019-05-07T14:57:06.196Z,5.28
2019-05-07T14:59:33.780Z,3.80
2019-05-07T15:02:02.868Z,3.20
2019-05-07T15:04:30.072Z,3.92
2019-05-07T15:07:04.790Z,3.62
2019-05-07T15:09:32.407Z,3.35
2019-05-07T15:12:02.220Z,3.62
2019-05-07T15:14:29.212Z,3.67
2019-05-07T15:16:56.864Z,3.15
2019-05-07T15:19:25.206Z,3.00
2019-05-07T15:21:53.688Z,2.80
2019-05-07T15:24:22.080Z,4.55
2019-05-07T15:26:49.733Z,2.90
2019-05-07T15:29:17.219Z,4.32
2019-05-07T15:31:51.712Z,3.87
2019-05-07T15:34:19.089Z,4.20
2019-05-07T15:36:47.737Z,3.95
2019-05-07T15:39:15.190Z,3.40
2019-05-07T15:41:42.741Z,3.30
2019-05-07T15:44:14.401Z,5.00
2019-05-07T15:46:42.806Z,4.43
2019-05-07T15:49:09.795Z,2.70
2019-05-07T15:51:38.475Z,2.35
2019-05-07T15:54:06.143Z,3.10
2019-05-07T15:56:38.441Z,2.83
2019-05-07T15:59:05.910Z,3.50
2019-05-07T16:01:34.528Z,3.12
2019-05-07T16:04:02.811Z,3.35
2019-05-07T16:06:32.205Z,4.30
2019-05-07T16:08:59.016Z,4.10
2019-05-07T16:11:26.495Z,4.35
2019-05-07T16:13:59.649Z,4.55
2019-05-07T16:16:27.928Z,11.73
2019-05-07T16:19:01.895Z,4.75
2019-05-07T16:21:28.817Z,6.12
2019-05-07T16:23:56.885Z,3.75
2019-05-07T16:26:24.383Z,2.78
2019-05-07T16:28:58.856Z,3.70
2019-05-07T16:31:26.795Z,3.35
2019-05-07T16:33:54.706Z,2.30
2019-05-07T16:36:28.748Z,2.92
2019-05-07T16:38:57.054Z,2.47
2019-05-07T16:41:26.622Z,3.97
2019-05-07T16:43:54.153Z,2.72
2019-05-07T16:46:22.544Z,2.90
2019-05-07T16:48:49.858Z,2.55
2019-05-07T16:51:17.326Z,2.05
2019-05-07T16:53:45.654Z,3.83
2019-05-07T16:56:14.481Z,3.20
2019-05-07T16:58:43.890Z,3.80
2019-05-07T17:01:13.114Z,3.92
2019-05-07T17:03:47.136Z,4.37
2019-05-07T17:06:17.347Z,5.10
2019-05-07T17:08:47.387Z,3.40
2019-05-07T17:11:18.122Z,3.53
2019-05-07T17:13:46.702Z,3.45
2019-05-07T17:16:14.180Z,4.15
2019-05-07T17:18:42.916Z,3.67
2019-05-07T17:21:12.214Z,3.72
2019-05-07T17:23:44.611Z,4.45
2019-05-07T17:26:07.067Z,4.22
2019-05-07T17:28:34.523Z,3.22
2019-05-07T17:31:03.068Z,4.57
2019-05-07T17:33:31.816Z,3.53
2019-05-07T17:35:57.046Z,4.43
2019-05-07T17:38:24.544Z,3.60
2019-05-07T17:41:09.876Z,3.30
2019-05-07T17:43:24.618Z,5.37
2019-05-07T17:45:52.452Z,4.47
2019-05-07T17:48:19.705Z,2.92
2019-05-07T17:50:47.202Z,3.58
2019-05-07T17:53:14.887Z,4.45
2019-05-07T17:55:43.643Z,3.70
2019-05-07T17:58:12.888Z,3.62
2019-05-07T18:00:38.861Z,3.17
2019-05-07T18:03:10.234Z,2.97
2019-05-07T18:05:37.712Z,3.42
2019-05-07T18:08:05.186Z,2.95
2019-05-07T18:10:32.975Z,4.15
2019-05-07T18:13:00.520Z,3.62
2019-05-07T18:15:27.991Z,3.37
2019-05-07T18:18:00.301Z,3.75
2019-05-07T18:20:25.946Z,4.75
2019-05-07T18:22:53.532Z,4.47
2019-05-07T18:25:21.747Z,4.53
2019-05-07T18:27:48.574Z,4.47
2019-05-07T18:30:16.119Z,4.65
2019-05-07T18:32:44.536Z,4.25
2019-05-07T18:35:12.604Z,3.80
2019-05-07T18:37:41.713Z,3.85
2019-05-07T18:40:07.332Z,4.62
2019-05-07T18:42:34.808Z,5.10
2019-05-07T18:45:02.340Z,5.80
2019-05-07T18:47:29.798Z,4.22
2019-05-07T18:49:57.370Z,3.95
2019-05-07T18:52:25.020Z,3.47
2019-05-07T18:54:52.469Z,4.72
2019-05-07T18:57:22.244Z,3.72
2019-05-07T18:59:48.258Z,4.75
2019-05-07T19:02:15.760Z,5.12
2019-05-07T19:04:43.287Z,3.92
2019-05-07T19:07:13.045Z,3.72
2019-05-07T19:09:38.254Z,4.20
2019-05-07T19:12:05.846Z,4.50
2019-05-07T19:14:33.439Z,3.97
2019-05-07T19:17:03.006Z,4.43
2019-05-07T19:19:28.464Z,5.07
2019-05-07T19:21:55.931Z,4.40
2019-05-07T19:24:26.224Z,4.43
2019-05-07T19:26:52.882Z,5.40
2019-05-07T19:29:18.631Z,4.43
2019-05-07T19:31:46.853Z,3.70
2019-05-07T19:34:14.409Z,3.65
2019-05-07T19:36:42.440Z,3.72
2019-05-07T19:39:09.412Z,4.62
2019-05-07T19:41:36.923Z,4.95
2019-05-07T19:44:04.402Z,4.18
2019-05-07T19:46:32.420Z,4.72
2019-05-07T19:48:59.915Z,3.35
2019-05-07T19:51:27.396Z,3.80
2019-05-07T19:53:55.678Z,3.85
2019-05-07T19:56:23.254Z,3.30
2019-05-07T19:58:52.586Z,2.95
2019-05-07T20:01:18.469Z,2.42
2019-05-07T20:03:46.114Z,2.40
2019-05-07T20:06:13.724Z,2.10
2019-05-07T20:08:43.670Z,2.40
2019-05-07T20:11:12.034Z,2.37
2019-05-07T20:13:41.653Z,2.20
2019-05-07T20:16:24.677Z,1.33
2019-05-07T20:18:52.505Z,1.92
2019-05-07T20:21:22.692Z,1.95
2019-05-07T20:23:48.407Z,1.52
2019-05-07T20:26:15.892Z,2.33
2019-05-07T20:28:43.477Z,1.33
2019-05-07T20:31:12.174Z,1.77
2019-05-07T20:33:43.797Z,2.62
2019-05-07T20:36:11.254Z,1.52
2019-05-07T20:38:38.892Z,2.00
2019-05-07T20:41:06.545Z,2.47
2019-05-07T20:43:33.999Z,1.73
2019-05-07T20:46:02.649Z,2.07
2019-05-07T20:48:32.746Z,2.10
2019-05-07T20:51:00.518Z,1.45
2019-05-07T20:53:34.740Z,1.90
2019-05-07T20:56:04.473Z,2.20
2019-05-07T20:58:32.862Z,2.37
2019-05-07T21:00:59.603Z,2.13
2019-05-07T21:03:27.049Z,2.60
2019-05-07T21:05:54.553Z,2.53
2019-05-07T21:08:23.302Z,2.43
2019-05-07T21:10:53.238Z,2.80
2019-05-07T21:13:28.526Z,2.47
2019-05-07T21:15:46.061Z,3.08
2019-05-07T21:18:13.550Z,2.35
2019-05-07T21:20:42.072Z,2.87
2019-05-07T21:23:09.030Z,1.80
2019-05-07T21:25:43.555Z,2.63
2019-05-07T21:28:04.311Z,2.60
2019-05-07T21:30:32.920Z,2.25
2019-05-07T21:33:00.970Z,3.00
2019-05-07T21:35:28.960Z,2.40
2019-05-07T21:37:56.656Z,3.30
2019-05-07T21:40:25.688Z,2.95
2019-05-07T21:42:53.387Z,2.10
2019-05-07T21:45:23.837Z,2.10
2019-05-07T21:47:52.055Z,1.70
2019-05-07T21:50:19.150Z,2.00
2019-05-07T21:53:04.235Z,2.15
2019-05-07T21:55:33.515Z,2.40
2019-05-07T21:58:06.768Z,2.30
2019-05-07T22:00:44.158Z,1.83
2019-05-07T22:03:12.598Z,1.60
2019-05-07T22:05:44.062Z,2.10
2019-05-07T22:08:07.684Z,1.50
2019-05-07T22:10:35.146Z,1.90
2019-05-07T22:13:03.284Z,1.95
2019-05-07T22:15:31.902Z,1.45
2019-05-07T22:17:57.685Z,1.73
2019-05-07T22:20:25.171Z,2.40
2019-05-07T22:22:52.656Z,1.58
2019-05-07T22:25:22.159Z,1.30
2019-05-07T22:27:47.639Z,1.60
2019-05-07T22:30:17.730Z,2.00
2019-05-07T22:32:45.936Z,2.10
2019-05-07T22:35:18.099Z,1.67
2019-05-07T22:37:45.561Z,1.95
2019-05-07T22:40:13.068Z,1.70
2019-05-07T22:42:40.502Z,1.60
2019-05-07T22:45:07.961Z,1.62
2019-05-07T22:47:35.412Z,1.70
2019-05-07T22:50:02.993Z,1.95
2019-05-07T22:52:32.133Z,1.83
2019-05-07T22:54:58.131Z,1.95
2019-05-07T22:57:41.851Z,1.25
2019-05-07T23:00:06.986Z,2.03
2019-05-07T23:02:34.474Z,1.20
2019-05-07T23:05:02.855Z,1.37
2019-05-07T23:07:29.450Z,1.60
2019-05-07T23:09:56.944Z,1.20
2019-05-07T23:12:24.395Z,1.70
2019-05-07T23:14:53.610Z,1.85
2019-05-07T23:17:19.343Z,1.70
2019-05-07T23:19:46.783Z,1.80
2019-05-07T23:22:14.283Z,1.45
2019-05-07T23:24:42.607Z,1.67
2019-05-07T23:27:09.250Z,1.25
2019-05-07T23:29:36.782Z,1.30
2019-05-07T23:32:04.230Z,1.90
2019-05-07T23:34:32.587Z,2.58
2019-05-07T23:36:59.171Z,1.92
2019-05-07T23:39:29.762Z,2.15
2019-05-07T23:41:57.203Z,1.50
2019-05-07T23:44:24.691Z,1.23
2019-05-07T23:46:52.166Z,1.75
2019-05-07T23:49:19.604Z,1.60
2019-05-07T23:51:47.062Z,1.85
2019-05-07T23:54:14.508Z,1.77
2019-05-07T23:56:42.769Z,1.45
2019-05-07T23:59:09.493Z,1.85
